sensor_id;sensor_type;location;lat;lon;timestamp;pressure;altitude;pressure_sealevel;temperature;humidity
49843;BME280;55559;48.898;9.184;2023-05-19T00:01:24;98915.16;;;10.39;100.00
49843;BME280;55559;48.898;9.184;2023-05-19T00:03:55;98911.50;;;10.29;100.00
49843;BME280;55559;48.898;9.184;2023-05-19T00:06:25;98925.16;;;10.24;100.00
49843;BME280;55559;48.898;9.184;2023-05-19T00:08:56;98913.44;;;10.27;100.00
49843;BME280;55559;48.898;9.184;2023-05-19T00:11:24;98920.09;;;10.21;100.00
49843;BME280;55559;48.898;9.184;2023-05-19T00:13:53;98920.22;;;10.20;100.00
49843;BME280;55559;48.898;9.184;2023-05-19T00:16:21;98921.31;;;10.17;100.00
49843;BME280;55559;48.898;9.184;2023-05-19T00:18:49;98925.28;;;10.23;100.00
49843;BME280;55559;48.898;9.184;2023-05-19T00:21:18;98915.97;;;10.29;100.00
49843;BME280;55559;48.898;9.184;2023-05-19T00:23:45;98917.91;;;10.27;100.00
49843;BME280;55559;48.898;9.184;2023-05-19T00:26:13;98914.41;;;10.26;100.00
49843;BME280;55559;48.898;9.184;2023-05-19T00:28:50;98917.06;;;10.26;100.00
49843;BME280;55559;48.898;9.184;2023-05-19T00:31:17;98916.34;;;10.24;100.00
49843;BME280;55559;48.898;9.184;2023-05-19T00:33:45;98916.34;;;10.24;100.00
49843;BME280;55559;48.898;9.184;2023-05-19T00:36:12;98913.81;;;10.22;100.00
49843;BME280;55559;48.898;9.184;2023-05-19T00:38:41;98917.91;;;10.27;100.00
49843;BME280;55559;48.898;9.184;2023-05-19T00:41:09;98913.69;;;10.24;100.00
49843;BME280;55559;48.898;9.184;2023-05-19T00:43:36;98911.16;;;10.22;100.00
49843;BME280;55559;48.898;9.184;2023-05-19T00:46:04;98913.22;;;10.19;100.00
49843;BME280;55559;48.898;9.184;2023-05-19T00:48:31;98914.28;;;10.16;100.00
49843;BME280;55559;48.898;9.184;2023-05-19T00:50:59;98910.22;;;10.12;100.00
49843;BME280;55559;48.898;9.184;2023-05-19T00:53:29;98909.75;;;10.07;100.00
49843;BME280;55559;48.898;9.184;2023-05-19T00:56:00;98909.97;;;10.04;100.00
49843;BME280;55559;48.898;9.184;2023-05-19T00:58:28;98900.69;;;9.98;100.00
49843;BME280;55559;48.898;9.184;2023-05-19T01:00:58;98906.47;;;9.92;100.00
49843;BME280;55559;48.898;9.184;2023-05-19T01:03:32;98902.50;;;9.86;100.00
49843;BME280;55559;48.898;9.184;2023-05-19T01:06:01;98904.06;;;9.78;100.00
49843;BME280;55559;48.898;9.184;2023-05-19T01:08:30;98899.25;;;9.72;100.00
49843;BME280;55559;48.898;9.184;2023-05-19T01:11:00;98895.72;;;9.71;100.00
49843;BME280;55559;48.898;9.184;2023-05-19T01:13:27;98899.72;;;9.65;100.00
49843;BME280;55559;48.898;9.184;2023-05-19T01:16:01;98902.72;;;9.61;100.00
49843;BME280;55559;48.898;9.184;2023-05-19T01:18:45;98895.75;;;9.60;100.00
49843;BME280;55559;48.898;9.184;2023-05-19T01:21:52;98905.25;;;9.62;100.00
49843;BME280;55559;48.898;9.184;2023-05-19T01:24:44;98903.59;;;9.61;100.00
49843;BME280;55559;48.898;9.184;2023-05-19T01:27:34;98911.06;;;9.56;100.00
49843;BME280;55559;48.898;9.184;2023-05-19T01:30:28;98906.94;;;9.52;100.00
49843;BME280;55559;48.898;9.184;2023-05-19T01:32:58;98924.56;;;9.53;100.00
49843;BME280;55559;48.898;9.184;2023-05-19T01:35:27;98921.81;;;9.55;100.00
49843;BME280;55559;48.898;9.184;2023-05-19T01:37:58;98914.69;;;9.55;100.00
49843;BME280;55559;48.898;9.184;2023-05-19T01:40:27;98907.44;;;9.57;100.00
49843;BME280;55559;48.898;9.184;2023-05-19T01:42:57;98905.00;;;9.54;100.00
49843;BME280;55559;48.898;9.184;2023-05-19T01:45:27;98907.66;;;9.54;100.00
49843;BME280;55559;48.898;9.184;2023-05-19T01:47:58;98914.78;;;9.54;100.00
49843;BME280;55559;48.898;9.184;2023-05-19T01:50:26;98909.13;;;9.58;100.00
49843;BME280;55559;48.898;9.184;2023-05-19T01:52:54;98896.09;;;9.66;100.00
49843;BME280;55559;48.898;9.184;2023-05-19T01:55:21;98903.31;;;9.64;100.00
49843;BME280;55559;48.898;9.184;2023-05-19T01:57:58;98921.78;;;9.66;100.00
49843;BME280;55559;48.898;9.184;2023-05-19T02:00:36;98902.97;;;9.69;100.00
49843;BME280;55559;48.898;9.184;2023-05-19T02:03:17;98910.81;;;9.71;100.00
49843;BME280;55559;48.898;9.184;2023-05-19T02:05:56;98908.75;;;9.74;100.00
49843;BME280;55559;48.898;9.184;2023-05-19T02:08:29;98905.53;;;9.82;100.00
49843;BME280;55559;48.898;9.184;2023-05-19T02:11:05;98906.34;;;9.82;100.00
49843;BME280;55559;48.898;9.184;2023-05-19T02:13:35;98910.59;;;9.85;100.00
49843;BME280;55559;48.898;9.184;2023-05-19T02:16:05;98906.72;;;9.89;100.00
49843;BME280;55559;48.898;9.184;2023-05-19T02:18:33;98910.47;;;9.64;100.00
49843;BME280;55559;48.898;9.184;2023-05-19T02:21:01;98914.19;;;9.73;100.00
49843;BME280;55559;48.898;9.184;2023-05-19T02:23:29;98915.66;;;9.65;100.00
49843;BME280;55559;48.898;9.184;2023-05-19T02:25:57;98910.09;;;9.68;100.00
49843;BME280;55559;48.898;9.184;2023-05-19T02:28:25;98910.22;;;9.67;100.00
49843;BME280;55559;48.898;9.184;2023-05-19T02:30:53;98907.44;;;9.68;100.00
49843;BME280;55559;48.898;9.184;2023-05-19T02:33:22;98905.25;;;9.62;100.00
49843;BME280;55559;48.898;9.184;2023-05-19T02:35:52;98911.41;;;9.63;100.00
49843;BME280;55559;48.898;9.184;2023-05-19T02:38:19;98917.81;;;9.60;100.00
49843;BME280;55559;48.898;9.184;2023-05-19T02:40:47;98910.44;;;9.53;100.00
49843;BME280;55559;48.898;9.184;2023-05-19T02:43:14;98913.19;;;9.51;100.00
49843;BME280;55559;48.898;9.184;2023-05-19T02:45:42;98903.81;;;9.47;100.00
49843;BME280;55559;48.898;9.184;2023-05-19T02:48:09;98910.44;;;9.41;100.00
49843;BME280;55559;48.898;9.184;2023-05-19T02:50:38;98890.50;;;9.24;100.00
49843;BME280;55559;48.898;9.184;2023-05-19T02:53:05;98902.44;;;9.30;100.00
49843;BME280;55559;48.898;9.184;2023-05-19T02:55:33;98904.03;;;9.33;100.00
49843;BME280;55559;48.898;9.184;2023-05-19T02:58:01;98901.22;;;9.34;100.00
49843;BME280;55559;48.898;9.184;2023-05-19T03:00:29;98895.44;;;9.29;100.00
49843;BME280;55559;48.898;9.184;2023-05-19T03:02:56;98887.25;;;9.32;100.00
49843;BME280;55559;48.898;9.184;2023-05-19T03:05:27;98894.63;;;9.40;100.00
49843;BME280;55559;48.898;9.184;2023-05-19T03:07:57;98880.75;;;9.36;100.00
49843;BME280;55559;48.898;9.184;2023-05-19T03:10:25;98886.53;;;9.30;100.00
49843;BME280;55559;48.898;9.184;2023-05-19T03:12:52;98884.09;;;9.27;100.00
49843;BME280;55559;48.898;9.184;2023-05-19T03:15:20;98891.34;;;9.25;100.00
49843;BME280;55559;48.898;9.184;2023-05-19T03:17:48;98887.94;;;9.11;100.00
49843;BME280;55559;48.898;9.184;2023-05-19T03:20:16;98893.38;;;9.21;100.00
49843;BME280;55559;48.898;9.184;2023-05-19T03:22:44;98893.13;;;9.13;100.00
49843;BME280;55559;48.898;9.184;2023-05-19T03:25:13;98893.81;;;9.04;100.00
49843;BME280;55559;48.898;9.184;2023-05-19T03:27:41;98886.72;;;9.04;100.00
49843;BME280;55559;48.898;9.184;2023-05-19T03:30:14;98890.78;;;8.97;100.00
49843;BME280;55559;48.898;9.184;2023-05-19T03:33:14;98889.44;;;8.91;100.00
49843;BME280;55559;48.898;9.184;2023-05-19T03:35:42;98894.97;;;8.88;100.00
49843;BME280;55559;48.898;9.184;2023-05-19T03:38:10;98891.72;;;8.85;100.00
49843;BME280;55559;48.898;9.184;2023-05-19T03:40:41;98894.59;;;8.82;100.00
49843;BME280;55559;48.898;9.184;2023-05-19T03:43:11;98894.19;;;8.75;100.00
49843;BME280;55559;48.898;9.184;2023-05-19T03:45:45;98893.47;;;8.73;100.00
49843;BME280;55559;48.898;9.184;2023-05-19T03:48:31;98896.00;;;8.74;100.00
49843;BME280;55559;48.898;9.184;2023-05-19T03:51:24;98897.59;;;8.77;100.00
49843;BME280;55559;48.898;9.184;2023-05-19T03:53:56;98894.84;;;8.79;100.00
49843;BME280;55559;48.898;9.184;2023-05-19T03:56:25;98896.34;;;8.70;100.00
49843;BME280;55559;48.898;9.184;2023-05-19T03:58:53;98901.75;;;8.68;100.00
49843;BME280;55559;48.898;9.184;2023-05-19T04:01:20;98914.06;;;8.69;100.00
49843;BME280;55559;48.898;9.184;2023-05-19T04:03:48;98905.28;;;8.69;100.00
49843;BME280;55559;48.898;9.184;2023-05-19T04:06:15;98908.59;;;8.60;100.00
49843;BME280;55559;48.898;9.184;2023-05-19T04:08:43;98912.72;;;8.64;100.00
49843;BME280;55559;48.898;9.184;2023-05-19T04:11:11;98916.72;;;8.69;100.00
49843;BME280;55559;48.898;9.184;2023-05-19T04:13:40;98924.91;;;8.66;100.00
49843;BME280;55559;48.898;9.184;2023-05-19T04:16:08;98918.31;;;8.72;100.00
49843;BME280;55559;48.898;9.184;2023-05-19T04:18:35;98929.03;;;8.70;100.00
49843;BME280;55559;48.898;9.184;2023-05-19T04:21:03;98921.81;;;8.72;100.00
49843;BME280;55559;48.898;9.184;2023-05-19T04:23:33;98926.13;;;8.73;100.00
49843;BME280;55559;48.898;9.184;2023-05-19T04:26:00;98930.03;;;8.81;100.00
49843;BME280;55559;48.898;9.184;2023-05-19T04:28:28;98921.97;;;8.82;100.00
49843;BME280;55559;48.898;9.184;2023-05-19T04:30:57;98923.53;;;8.85;100.00
49843;BME280;55559;48.898;9.184;2023-05-19T04:33:25;98923.19;;;8.89;100.00
49843;BME280;55559;48.898;9.184;2023-05-19T04:35:54;98925.25;;;8.97;100.00
49843;BME280;55559;48.898;9.184;2023-05-19T04:38:24;98921.28;;;8.91;100.00
49843;BME280;55559;48.898;9.184;2023-05-19T04:40:55;98919.34;;;8.93;100.00
49843;BME280;55559;48.898;9.184;2023-05-19T04:43:25;98918.31;;;9.07;100.00
49843;BME280;55559;48.898;9.184;2023-05-19T04:45:53;98923.25;;;9.12;100.00
49843;BME280;55559;48.898;9.184;2023-05-19T04:48:25;98918.81;;;9.12;100.00
49843;BME280;55559;48.898;9.184;2023-05-19T04:50:56;98918.44;;;9.17;100.00
49843;BME280;55559;48.898;9.184;2023-05-19T04:53:28;98922.47;;;9.23;100.00
49843;BME280;55559;48.898;9.184;2023-05-19T04:55:57;98927.94;;;9.33;100.00
49843;BME280;55559;48.898;9.184;2023-05-19T04:58:26;98930.31;;;9.36;100.00
49843;BME280;55559;48.898;9.184;2023-05-19T05:00:53;98922.84;;;9.29;100.00
49843;BME280;55559;48.898;9.184;2023-05-19T05:03:22;98918.28;;;9.43;100.00
49843;BME280;55559;48.898;9.184;2023-05-19T05:05:52;98924.44;;;9.66;100.00
49843;BME280;55559;48.898;9.184;2023-05-19T05:08:20;98926.38;;;9.64;100.00
49843;BME280;55559;48.898;9.184;2023-05-19T05:10:49;98926.03;;;9.68;100.00
49843;BME280;55559;48.898;9.184;2023-05-19T05:13:22;98920.97;;;9.77;100.00
49843;BME280;55559;48.898;9.184;2023-05-19T05:15:50;98921.59;;;9.92;100.00
49843;BME280;55559;48.898;9.184;2023-05-19T05:18:20;98918.66;;;10.06;100.00
49843;BME280;55559;48.898;9.184;2023-05-19T05:20:48;98930.00;;;10.19;100.00
49843;BME280;55559;48.898;9.184;2023-05-19T05:23:17;98917.94;;;10.15;100.00
49843;BME280;55559;48.898;9.184;2023-05-19T05:25:47;98920.47;;;10.05;100.00
49843;BME280;55559;48.898;9.184;2023-05-19T05:28:15;98922.16;;;10.18;100.00
49843;BME280;55559;48.898;9.184;2023-05-19T05:30:44;98920.25;;;10.09;100.00
49843;BME280;55559;48.898;9.184;2023-05-19T05:33:13;98908.97;;;10.28;100.00
49843;BME280;55559;48.898;9.184;2023-05-19T05:35:41;98906.81;;;10.44;100.00
49843;BME280;55559;48.898;9.184;2023-05-19T05:38:10;98916.31;;;10.47;100.00
49843;BME280;55559;48.898;9.184;2023-05-19T05:40:40;98915.53;;;10.67;100.00
49843;BME280;55559;48.898;9.184;2023-05-19T05:43:08;98915.50;;;10.78;100.00
49843;BME280;55559;48.898;9.184;2023-05-19T05:45:42;98918.19;;;10.67;100.00
49843;BME280;55559;48.898;9.184;2023-05-19T05:48:11;98921.72;;;10.68;100.00
49843;BME280;55559;48.898;9.184;2023-05-19T05:50:39;98920.44;;;10.83;100.00
49843;BME280;55559;48.898;9.184;2023-05-19T05:53:08;98912.69;;;11.12;100.00
49843;BME280;55559;48.898;9.184;2023-05-19T05:55:44;98922.25;;;11.15;100.00
49843;BME280;55559;48.898;9.184;2023-05-19T05:58:13;98923.72;;;11.08;100.00
49843;BME280;55559;48.898;9.184;2023-05-19T06:00:42;98915.22;;;11.14;100.00
49843;BME280;55559;48.898;9.184;2023-05-19T06:03:10;98917.97;;;11.24;100.00
49843;BME280;55559;48.898;9.184;2023-05-19T06:05:38;98921.59;;;11.44;100.00
49843;BME280;55559;48.898;9.184;2023-05-19T06:08:05;98912.88;;;11.63;100.00
49843;BME280;55559;48.898;9.184;2023-05-19T06:10:33;98918.38;;;11.50;100.00
49843;BME280;55559;48.898;9.184;2023-05-19T06:13:08;98916.94;;;11.67;100.00
49843;BME280;55559;48.898;9.184;2023-05-19T06:15:38;98913.09;;;12.72;94.97
49843;BME280;55559;48.898;9.184;2023-05-19T06:18:14;98908.13;;;13.92;83.68
49843;BME280;55559;48.898;9.184;2023-05-19T06:20:42;98905.75;;;13.52;84.81
49843;BME280;55559;48.898;9.184;2023-05-19T06:23:09;98907.63;;;13.02;89.09
49843;BME280;55559;48.898;9.184;2023-05-19T06:25:37;98905.50;;;13.16;87.59
49843;BME280;55559;48.898;9.184;2023-05-19T06:28:04;98906.75;;;13.31;85.89
49843;BME280;55559;48.898;9.184;2023-05-19T06:30:33;98906.03;;;14.24;79.23
49843;BME280;55559;48.898;9.184;2023-05-19T06:33:12;98898.13;;;15.22;75.80
49843;BME280;55559;48.898;9.184;2023-05-19T06:35:40;98900.56;;;15.33;73.57
49843;BME280;55559;48.898;9.184;2023-05-19T06:38:07;98903.09;;;15.35;71.95
49843;BME280;55559;48.898;9.184;2023-05-19T06:40:35;98904.63;;;16.32;68.52
49843;BME280;55559;48.898;9.184;2023-05-19T06:43:03;98902.72;;;15.56;71.79
49843;BME280;55559;48.898;9.184;2023-05-19T06:45:52;98894.50;;;15.31;73.19
49843;BME280;55559;48.898;9.184;2023-05-19T06:48:21;98897.16;;;14.87;75.00
49843;BME280;55559;48.898;9.184;2023-05-19T06:50:48;98894.41;;;14.33;80.22
49843;BME280;55559;48.898;9.184;2023-05-19T06:53:18;98901.25;;;13.90;81.98
49843;BME280;55559;48.898;9.184;2023-05-19T06:55:46;98904.91;;;13.42;86.37
49843;BME280;55559;48.898;9.184;2023-05-19T06:58:18;98900.22;;;13.63;85.76
49843;BME280;55559;48.898;9.184;2023-05-19T07:00:46;98904.22;;;13.39;87.71
49843;BME280;55559;48.898;9.184;2023-05-19T07:03:17;98899.16;;;13.84;83.79
49843;BME280;55559;48.898;9.184;2023-05-19T07:05:45;98898.88;;;14.42;78.08
49843;BME280;55559;48.898;9.184;2023-05-19T07:08:12;98895.63;;;14.21;78.42
49843;BME280;55559;48.898;9.184;2023-05-19T07:10:40;98894.25;;;14.98;74.59
49843;BME280;55559;48.898;9.184;2023-05-19T07:13:11;98903.59;;;14.30;76.12
49843;BME280;55559;48.898;9.184;2023-05-19T07:15:39;98895.78;;;14.65;72.73
49843;BME280;55559;48.898;9.184;2023-05-19T07:18:07;98898.44;;;15.01;71.12
49843;BME280;55559;48.898;9.184;2023-05-19T07:20:36;98894.50;;;14.69;74.43
49843;BME280;55559;48.898;9.184;2023-05-19T07:23:03;98898.25;;;14.30;74.93
49843;BME280;55559;48.898;9.184;2023-05-19T07:25:31;98893.53;;;14.42;74.42
49843;BME280;55559;48.898;9.184;2023-05-19T07:27:59;98883.47;;;14.90;71.13
49843;BME280;55559;48.898;9.184;2023-05-19T07:30:27;98890.81;;;15.06;72.03
49843;BME280;55559;48.898;9.184;2023-05-19T07:32:54;98895.78;;;15.01;75.36
49843;BME280;55559;48.898;9.184;2023-05-19T07:35:22;98890.38;;;14.93;71.71
49843;BME280;55559;48.898;9.184;2023-05-19T07:37:51;98887.09;;;14.81;72.99
49843;BME280;55559;48.898;9.184;2023-05-19T07:40:19;98890.53;;;14.91;74.02
49843;BME280;55559;48.898;9.184;2023-05-19T07:42:48;98896.28;;;15.22;72.08
49843;BME280;55559;48.898;9.184;2023-05-19T07:45:16;98892.91;;;14.94;73.25
49843;BME280;55559;48.898;9.184;2023-05-19T07:47:43;98899.91;;;14.77;71.96
49843;BME280;55559;48.898;9.184;2023-05-19T07:50:10;98889.16;;;14.69;74.50
49843;BME280;55559;48.898;9.184;2023-05-19T07:52:38;98890.06;;;14.78;73.75
49843;BME280;55559;48.898;9.184;2023-05-19T07:55:07;98890.22;;;14.94;73.79
49843;BME280;55559;48.898;9.184;2023-05-19T07:57:34;98881.25;;;14.85;73.84
49843;BME280;55559;48.898;9.184;2023-05-19T08:00:02;98878.03;;;15.00;71.80
49843;BME280;55559;48.898;9.184;2023-05-19T08:02:37;98880.88;;;14.80;73.36
49843;BME280;55559;48.898;9.184;2023-05-19T08:05:05;98884.19;;;15.36;70.81
49843;BME280;55559;48.898;9.184;2023-05-19T08:07:34;98872.19;;;15.49;69.28
49843;BME280;55559;48.898;9.184;2023-05-19T08:10:01;98877.66;;;15.65;70.03
49843;BME280;55559;48.898;9.184;2023-05-19T08:12:30;98871.28;;;15.66;68.07
49843;BME280;55559;48.898;9.184;2023-05-19T08:14:58;98861.78;;;15.72;67.20
49843;BME280;55559;48.898;9.184;2023-05-19T08:17:25;98861.00;;;15.79;67.82
49843;BME280;55559;48.898;9.184;2023-05-19T08:19:53;98862.63;;;15.20;69.42
49843;BME280;55559;48.898;9.184;2023-05-19T08:22:20;98864.06;;;15.32;69.22
49843;BME280;55559;48.898;9.184;2023-05-19T08:24:47;98861.66;;;15.03;72.25
49843;BME280;55559;48.898;9.184;2023-05-19T08:27:16;98857.69;;;14.53;74.20
49843;BME280;55559;48.898;9.184;2023-05-19T08:29:45;98859.63;;;14.61;74.00
49843;BME280;55559;48.898;9.184;2023-05-19T08:32:12;98850.97;;;14.49;76.31
49843;BME280;55559;48.898;9.184;2023-05-19T08:34:40;98853.69;;;14.39;75.92
49843;BME280;55559;48.898;9.184;2023-05-19T08:37:07;98852.38;;;14.25;78.46
49843;BME280;55559;48.898;9.184;2023-05-19T08:39:35;98857.63;;;14.63;76.67
49843;BME280;55559;48.898;9.184;2023-05-19T08:42:03;98854.44;;;14.59;76.57
49843;BME280;55559;48.898;9.184;2023-05-19T08:44:32;98857.81;;;14.33;76.70
49843;BME280;55559;48.898;9.184;2023-05-19T08:47:03;98849.63;;;14.35;76.33
49843;BME280;55559;48.898;9.184;2023-05-19T08:49:34;98859.56;;;14.71;75.83
49843;BME280;55559;48.898;9.184;2023-05-19T08:52:08;98862.19;;;14.52;77.51
49843;BME280;55559;48.898;9.184;2023-05-19T08:54:44;98861.38;;;14.70;75.77
49843;BME280;55559;48.898;9.184;2023-05-19T08:57:13;98854.88;;;14.73;75.92
49843;BME280;55559;48.898;9.184;2023-05-19T08:59:42;98856.75;;;14.44;77.35
49843;BME280;55559;48.898;9.184;2023-05-19T09:02:12;98861.44;;;14.14;79.11
49843;BME280;55559;48.898;9.184;2023-05-19T09:04:40;98856.44;;;14.29;78.13
49843;BME280;55559;48.898;9.184;2023-05-19T09:07:12;98853.78;;;14.47;76.59
49843;BME280;55559;48.898;9.184;2023-05-19T09:09:40;98857.72;;;14.25;78.54
49843;BME280;55559;48.898;9.184;2023-05-19T09:12:08;98847.59;;;14.47;77.28
49843;BME280;55559;48.898;9.184;2023-05-19T09:14:37;98850.94;;;14.31;79.04
49843;BME280;55559;48.898;9.184;2023-05-19T09:17:04;98857.50;;;14.19;78.88
49843;BME280;55559;48.898;9.184;2023-05-19T09:19:33;98854.50;;;14.67;77.69
49843;BME280;55559;48.898;9.184;2023-05-19T09:22:01;98846.91;;;14.99;75.60
49843;BME280;55559;48.898;9.184;2023-05-19T09:24:29;98851.91;;;14.76;76.14
49843;BME280;55559;48.898;9.184;2023-05-19T09:26:57;98851.81;;;14.85;73.18
49843;BME280;55559;48.898;9.184;2023-05-19T09:29:24;98851.50;;;14.52;76.89
49843;BME280;55559;48.898;9.184;2023-05-19T09:31:53;98856.31;;;14.49;77.32
49843;BME280;55559;48.898;9.184;2023-05-19T09:34:25;98851.13;;;14.83;73.96
49843;BME280;55559;48.898;9.184;2023-05-19T09:36:54;98850.44;;;14.81;75.50
49843;BME280;55559;48.898;9.184;2023-05-19T09:39:23;98855.00;;;14.89;74.96
49843;BME280;55559;48.898;9.184;2023-05-19T09:41:51;98839.66;;;15.17;75.82
49843;BME280;55559;48.898;9.184;2023-05-19T09:44:22;98841.78;;;15.32;73.73
49843;BME280;55559;48.898;9.184;2023-05-19T09:46:54;98846.25;;;15.23;73.92
49843;BME280;55559;48.898;9.184;2023-05-19T09:49:22;98840.94;;;15.05;75.54
49843;BME280;55559;48.898;9.184;2023-05-19T09:51:54;98858.41;;;14.91;77.83
49843;BME280;55559;48.898;9.184;2023-05-19T09:54:23;98856.09;;;14.78;76.65
49843;BME280;55559;48.898;9.184;2023-05-19T09:56:55;98843.97;;;15.10;76.50
49843;BME280;55559;48.898;9.184;2023-05-19T09:59:23;98846.50;;;15.38;74.50
49843;BME280;55559;48.898;9.184;2023-05-19T10:01:53;98843.88;;;15.20;72.51
49843;BME280;55559;48.898;9.184;2023-05-19T10:04:22;98840.19;;;14.95;74.80
49843;BME280;55559;48.898;9.184;2023-05-19T10:06:50;98829.78;;;15.44;74.48
49843;BME280;55559;48.898;9.184;2023-05-19T10:09:23;98835.31;;;15.42;72.56
49843;BME280;55559;48.898;9.184;2023-05-19T10:11:51;98831.09;;;15.14;73.65
49843;BME280;55559;48.898;9.184;2023-05-19T10:14:21;98838.78;;;15.35;71.89
49843;BME280;55559;48.898;9.184;2023-05-19T10:16:50;98835.28;;;15.69;71.30
49843;BME280;55559;48.898;9.184;2023-05-19T10:19:19;98831.44;;;15.71;73.00
49843;BME280;55559;48.898;9.184;2023-05-19T10:21:47;98830.75;;;15.69;70.60
49843;BME280;55559;48.898;9.184;2023-05-19T10:24:15;98828.59;;;15.38;71.02
49843;BME280;55559;48.898;9.184;2023-05-19T10:26:47;98829.72;;;15.62;70.14
49843;BME280;55559;48.898;9.184;2023-05-19T10:29:19;98820.16;;;15.86;70.06
49843;BME280;55559;48.898;9.184;2023-05-19T10:31:49;98825.16;;;16.40;68.07
49843;BME280;55559;48.898;9.184;2023-05-19T10:34:51;98822.41;;;16.15;68.82
49843;BME280;55559;48.898;9.184;2023-05-19T10:37:30;98822.88;;;15.68;70.14
49843;BME280;55559;48.898;9.184;2023-05-19T10:40:08;98828.28;;;15.15;71.20
49843;BME280;55559;48.898;9.184;2023-05-19T10:42:43;98820.81;;;15.88;69.55
49843;BME280;55559;48.898;9.184;2023-05-19T10:45:17;98819.88;;;15.71;69.84
49843;BME280;55559;48.898;9.184;2023-05-19T10:47:46;98821.88;;;16.03;68.04
49843;BME280;55559;48.898;9.184;2023-05-19T10:50:13;98822.72;;;16.12;68.69
49843;BME280;55559;48.898;9.184;2023-05-19T10:52:42;98811.53;;;16.16;66.71
49843;BME280;55559;48.898;9.184;2023-05-19T10:55:11;98819.91;;;16.22;67.71
49843;BME280;55559;48.898;9.184;2023-05-19T10:57:54;98819.44;;;16.26;67.53
49843;BME280;55559;48.898;9.184;2023-05-19T11:00:26;98819.50;;;16.00;68.78
49843;BME280;55559;48.898;9.184;2023-05-19T11:03:11;98822.69;;;15.95;67.66
49843;BME280;55559;48.898;9.184;2023-05-19T11:05:39;98821.50;;;15.90;67.64
49843;BME280;55559;48.898;9.184;2023-05-19T11:08:06;98819.00;;;15.96;68.14
49843;BME280;55559;48.898;9.184;2023-05-19T11:10:35;98815.81;;;15.67;70.60
49843;BME280;55559;48.898;9.184;2023-05-19T11:13:04;98819.00;;;15.96;67.80
49843;BME280;55559;48.898;9.184;2023-05-19T11:15:34;98807.91;;;15.91;68.96
49843;BME280;55559;48.898;9.184;2023-05-19T11:18:03;98809.47;;;16.10;69.14
49843;BME280;55559;48.898;9.184;2023-05-19T11:20:31;98817.00;;;15.98;68.66
49843;BME280;55559;48.898;9.184;2023-05-19T11:23:03;98816.25;;;16.31;65.84
49843;BME280;55559;48.898;9.184;2023-05-19T11:25:45;98816.81;;;16.00;67.71
49843;BME280;55559;48.898;9.184;2023-05-19T11:28:18;98813.34;;;16.08;68.55
49843;BME280;55559;48.898;9.184;2023-05-19T11:30:53;98815.06;;;16.33;68.28
49843;BME280;55559;48.898;9.184;2023-05-19T11:33:22;98818.16;;;15.96;67.20
49843;BME280;55559;48.898;9.184;2023-05-19T11:35:52;98821.22;;;16.09;66.80
49843;BME280;55559;48.898;9.184;2023-05-19T11:38:22;98812.69;;;16.22;66.92
49843;BME280;55559;48.898;9.184;2023-05-19T11:40:52;98814.97;;;15.92;68.24
49843;BME280;55559;48.898;9.184;2023-05-19T11:43:23;98805.81;;;16.11;68.70
49843;BME280;55559;48.898;9.184;2023-05-19T11:45:52;98809.16;;;16.13;67.90
49843;BME280;55559;48.898;9.184;2023-05-19T11:48:20;98800.66;;;15.75;68.21
49843;BME280;55559;48.898;9.184;2023-05-19T11:50:48;98802.97;;;16.21;67.62
49843;BME280;55559;48.898;9.184;2023-05-19T11:53:17;98799.16;;;16.48;65.23
49843;BME280;55559;48.898;9.184;2023-05-19T11:55:46;98795.66;;;16.72;63.41
49843;BME280;55559;48.898;9.184;2023-05-19T11:58:14;98798.69;;;17.02;63.92
49843;BME280;55559;48.898;9.184;2023-05-19T12:00:44;98791.75;;;17.33;61.20
49843;BME280;55559;48.898;9.184;2023-05-19T12:03:12;98792.31;;;17.03;64.71
49843;BME280;55559;48.898;9.184;2023-05-19T12:05:43;98791.22;;;17.45;61.07
49843;BME280;55559;48.898;9.184;2023-05-19T12:08:11;98788.78;;;16.78;64.18
49843;BME280;55559;48.898;9.184;2023-05-19T12:10:39;98788.44;;;16.89;62.04
49843;BME280;55559;48.898;9.184;2023-05-19T12:13:07;98798.03;;;16.92;64.96
49843;BME280;55559;48.898;9.184;2023-05-19T12:15:35;98797.31;;;16.57;68.16
49843;BME280;55559;48.898;9.184;2023-05-19T12:18:06;98797.00;;;16.60;66.46
49843;BME280;55559;48.898;9.184;2023-05-19T12:20:34;98800.84;;;16.66;66.42
49843;BME280;55559;48.898;9.184;2023-05-19T12:23:02;98797.13;;;16.17;68.68
49843;BME280;55559;48.898;9.184;2023-05-19T12:25:30;98797.91;;;16.10;68.56
49843;BME280;55559;48.898;9.184;2023-05-19T12:27:58;98792.25;;;16.21;67.78
49843;BME280;55559;48.898;9.184;2023-05-19T12:30:28;98793.25;;;16.20;67.63
49843;BME280;55559;48.898;9.184;2023-05-19T12:32:56;98795.19;;;15.93;69.78
49843;BME280;55559;48.898;9.184;2023-05-19T12:35:29;98792.53;;;15.59;75.47
49843;BME280;55559;48.898;9.184;2023-05-19T12:38:01;98795.00;;;15.26;77.76
49843;BME280;55559;48.898;9.184;2023-05-19T12:40:29;98800.97;;;15.46;77.45
49843;BME280;55559;48.898;9.184;2023-05-19T12:42:57;98797.78;;;15.42;78.63
49843;BME280;55559;48.898;9.184;2023-05-19T12:45:25;98798.41;;;15.62;77.27
49843;BME280;55559;48.898;9.184;2023-05-19T12:47:53;98804.94;;;15.68;79.77
49843;BME280;55559;48.898;9.184;2023-05-19T12:50:20;98795.88;;;15.61;79.03
49843;BME280;55559;48.898;9.184;2023-05-19T12:52:49;98801.19;;;15.79;78.93
49843;BME280;55559;48.898;9.184;2023-05-19T12:55:17;98798.56;;;15.61;78.69
49843;BME280;55559;48.898;9.184;2023-05-19T12:57:48;98784.03;;;15.37;79.18
49843;BME280;55559;48.898;9.184;2023-05-19T13:00:17;98793.69;;;15.65;79.91
49843;BME280;55559;48.898;9.184;2023-05-19T13:02:56;98790.00;;;15.57;75.03
49843;BME280;55559;48.898;9.184;2023-05-19T13:05:25;98790.66;;;15.59;75.54
49843;BME280;55559;48.898;9.184;2023-05-19T13:07:55;98781.75;;;15.77;74.96
49843;BME280;55559;48.898;9.184;2023-05-19T13:10:23;98797.84;;;15.85;73.33
49843;BME280;55559;48.898;9.184;2023-05-19T13:12:53;98796.53;;;15.63;74.75